Terminal Aerodrome Forecast
Issued by NWS

Home | Current Version | Previous Version | Text Only | Print | Product List | Glossary On
Versions: 1 2 3 4 5 6 7 8 9 10 11 12 13 14 15 16 17 18 19 20 21 22
000
FTUS45 KRIW 040523
TAFPNA
TAF
KPNA 040523Z 0406/0506 29007KT P6SM VCSH SCT050 BKN070
     FM040900 30011G19KT P6SM VCSH SCT040 BKN060
     FM042000 30015G25KT P6SM SCT090
     FM050200 30007KT P6SM SCT200
      AMD LTD TO CLD VIS AND WIND=

USA.gov is the U.S. government's official web portal to all federal, state and local government web resources and services.